Time;durP1;ratioP1;P1;durP2;ratioP2;P2;SDS_P1;SDS_P2;PMS_P1;PMS_P2;Temp;Humidity;BMP_temperature;BMP_pressure;BME280_temperature;BME280_humidity;BME280_pressure;Samples;Min_cycle;Max_cycle;Signal;HPM_P1;HPM_P2
2022/05/19 00:02:09;;;;;;;72.40;64.60;;;15.80;87.30;;;;;;5069272;28;20069;-46
2022/05/19 00:04:35;;;;;;;68.18;61.15;;;15.70;87.40;;;;;;5069285;28;20106;-46
2022/05/19 00:07:02;;;;;;;70.82;63.58;;;15.70;87.40;;;;;;5068801;28;20387;-47
2022/05/19 00:09:27;;;;;;;70.65;63.03;;;15.70;87.50;;;;;;5069057;28;20048;-45
2022/05/19 00:11:55;;;;;;;69.53;62.13;;;15.70;87.40;;;;;;5068737;28;20356;-46
2022/05/19 00:14:21;;;;;;;66.18;59.20;;;15.60;87.50;;;;;;5069578;28;20026;-45
2022/05/19 00:16:47;;;;;;;65.13;58.40;;;15.60;87.40;;;;;;5069546;28;20048;-44
2022/05/19 00:19:14;;;;;;;69.75;62.63;;;15.60;87.50;;;;;;5068602;28;20382;-45
2022/05/19 00:21:41;;;;;;;72.05;64.00;;;15.60;87.40;;;;;;5068924;28;20022;-44
2022/05/19 00:24:07;;;;;;;72.85;64.88;;;15.60;87.50;;;;;;5068322;28;20170;-45
2022/05/19 00:26:33;;;;;;;69.88;62.65;;;15.60;87.80;;;;;;5067656;28;20097;-46
2022/05/19 00:29:01;;;;;;;73.68;65.82;;;15.70;87.80;;;;;;5068349;28;20461;-45
2022/05/19 00:31:27;;;;;;;69.90;62.65;;;15.60;87.70;;;;;;5067633;28;20364;-44
2022/05/19 00:33:53;;;;;;;73.07;65.97;;;15.60;87.90;;;;;;5067125;28;20020;-45
2022/05/19 00:36:20;;;;;;;77.75;69.53;;;15.60;87.70;;;;;;5067669;28;20028;-49
2022/05/19 00:38:48;;;;;;;70.75;63.67;;;15.60;87.60;;;;;;5049554;28;20052;-45
2022/05/19 00:41:17;;;;;;;78.68;70.35;;;15.60;87.70;;;;;;5067420;28;20066;-44
2022/05/19 00:43:55;;;;;;;72.30;64.75;;;15.50;87.70;;;;;;5068032;28;20413;-48
2022/05/19 00:46:47;;;;;;;74.80;67.25;;;15.60;87.70;;;;;;5067563;28;20350;-45
2022/05/19 00:49:27;;;;;;;68.75;61.67;;;15.50;87.80;;;;;;5067893;28;20028;-46
2022/05/19 00:52:14;;;;;;;66.38;59.83;;;15.50;87.80;;;;;;5066305;28;20043;-45
2022/05/19 00:54:46;;;;;;;69.25;62.10;;;15.50;87.80;;;;;;5065922;28;20112;-44
2022/05/19 00:57:18;;;;;;;64.25;57.47;;;15.40;87.70;;;;;;5066364;28;20108;-44
2022/05/19 00:59:50;;;;;;;65.97;59.20;;;15.40;87.80;;;;;;5067561;28;20037;-46
2022/05/19 01:02:19;;;;;;;71.18;63.47;;;15.40;87.80;;;;;;5068042;28;20035;-44
2022/05/19 01:04:55;;;;;;;69.00;61.60;;;15.30;87.80;;;;;;5066787;28;20060;-44
2022/05/19 01:07:27;;;;;;;71.13;63.65;;;15.30;88.00;;;;;;5068388;28;20021;-43
2022/05/19 01:09:56;;;;;;;72.38;64.65;;;15.20;88.00;;;;;;5049293;28;20039;-45
2022/05/19 01:12:22;;;;;;;74.68;67.30;;;15.20;88.20;;;;;;5059704;28;20021;-47
2022/05/19 01:14:48;;;;;;;67.32;60.58;;;15.20;88.20;;;;;;5068012;28;20471;-44
2022/05/19 01:17:16;;;;;;;70.20;62.83;;;15.20;88.30;;;;;;5067577;28;20044;-44
2022/05/19 01:19:48;;;;;;;71.13;63.78;;;15.10;88.10;;;;;;5068266;28;20345;-44
2022/05/19 01:22:30;;;;;;;72.75;65.47;;;15.10;88.00;;;;;;5068231;28;20366;-44
2022/05/19 01:25:12;;;;;;;69.45;62.45;;;15.10;88.20;;;;;;5066883;28;20089;-47
2022/05/19 01:27:38;;;;;;;71.60;64.28;;;15.10;88.30;;;;;;5050427;28;20033;-43
2022/05/19 01:30:08;;;;;;;69.70;62.35;;;15.00;88.20;;;;;;5065470;28;20503;-46
2022/05/19 01:32:33;;;;;;;;;;;15.00;88.30;;;;;;5050754;28;20708;-45
2022/05/19 01:35:00;;;;;;;68.18;61.58;;;15.00;88.40;;;;;;5066876;28;19929;-44
2022/05/19 01:37:26;;;;;;;67.03;60.00;;;15.00;88.40;;;;;;5050205;28;20029;-47
2022/05/19 01:40:03;;;;;;;66.18;59.60;;;15.00;88.40;;;;;;5065783;28;20102;-43
2022/05/19 01:42:56;;;;;;;80.10;72.10;;;15.00;88.40;;;;;;5066480;28;20520;-44
2022/05/19 01:45:39;;;;;;;72.60;65.28;;;14.90;88.50;;;;;;5066883;28;20035;-45
2022/05/19 01:48:20;;;;;;;73.13;65.82;;;15.00;88.50;;;;;;5049458;28;20028;-43
2022/05/19 01:50:57;;;;;;;83.28;74.25;;;15.00;88.50;;;;;;5067786;28;20029;-43
2022/05/19 01:53:35;;;;;;;78.43;70.22;;;14.90;88.40;;;;;;5049627;28;20028;-46
2022/05/19 01:56:14;;;;;;;78.38;70.75;;;14.90;88.70;;;;;;5067524;28;20033;-46
2022/05/19 01:58:54;;;;;;;79.57;71.03;;;14.90;88.50;;;;;;5067063;28;20025;-44
2022/05/19 02:01:25;;;;;;;78.03;70.13;;;14.90;88.50;;;;;;5049139;28;20040;-45
2022/05/19 02:04:17;;;;;;;74.65;66.90;;;15.00;88.60;;;;;;5067682;28;20425;-47
2022/05/19 02:06:53;;;;;;;69.65;62.53;;;14.90;88.70;;;;;;5041572;28;20043;-45
2022/05/19 02:09:27;;;;;;;72.93;64.93;;;14.90;88.60;;;;;;5047545;28;20029;-44
2022/05/19 02:11:55;;;;;;;68.30;61.35;;;14.90;88.60;;;;;;5066511;28;20031;-43
2022/05/19 02:14:56;;;;;;;66.18;59.45;;;14.90;88.60;;;;;;5068527;28;20037;-44
2022/05/19 02:17:28;;;;;;;64.03;57.35;;;14.90;88.60;;;;;;5034612;28;20405;-44
2022/05/19 02:19:58;;;;;;;60.33;53.95;;;14.90;88.60;;;;;;5063551;28;20032;-44
2022/05/19 02:22:32;;;;;;;62.38;55.92;;;14.90;88.40;;;;;;5066731;28;20075;-46
2022/05/19 02:25:05;;;;;;;63.05;56.70;;;14.90;88.40;;;;;;5049795;28;20468;-44
2022/05/19 02:27:37;;;;;;;68.20;61.17;;;14.90;88.50;;;;;;5048859;28;20025;-44
2022/05/19 02:30:07;;;;;;;66.07;59.05;;;14.90;88.50;;;;;;5063782;28;20020;-43
2022/05/19 02:32:33;;;;;;;63.58;57.00;;;14.90;88.50;;;;;;5066662;28;20066;-45
2022/05/19 02:34:58;;;;;;;61.55;55.30;;;14.90;88.30;;;;;;5066586;28;20064;-44
2022/05/19 02:37:26;;;;;;;66.00;59.53;;;14.80;88.30;;;;;;5067200;28;20441;-44
2022/05/19 02:39:52;;;;;;;64.32;57.58;;;14.90;88.30;;;;;;5049655;28;20060;-43
2022/05/19 02:42:17;;;;;;;62.50;55.90;;;14.80;88.30;;;;;;5067047;28;20060;-43
2022/05/19 02:44:43;;;;;;;64.05;57.78;;;14.80;88.20;;;;;;5064703;28;20075;-42
2022/05/19 02:47:09;;;;;;;61.17;55.35;;;14.70;88.30;;;;;;5049488;28;20028;-43
2022/05/19 02:49:34;;;;;;;65.45;58.75;;;14.70;88.30;;;;;;5048938;28;20505;-44
2022/05/19 02:52:02;;;;;;;61.33;55.10;;;14.70;88.30;;;;;;5067293;28;20112;-44
2022/05/19 02:54:27;;;;;;;64.75;58.30;;;14.70;88.30;;;;;;5066914;28;20029;-43
2022/05/19 02:56:53;;;;;;;60.60;54.38;;;14.60;88.30;;;;;;5049889;28;20448;-47
2022/05/19 02:59:19;;;;;;;64.07;57.58;;;14.60;88.30;;;;;;5070066;28;20025;-44
2022/05/19 03:01:44;;;;;;;62.38;55.58;;;14.60;88.20;;;;;;5070133;28;20033;-43
2022/05/19 03:04:10;;;;;;;66.22;59.05;;;14.60;88.20;;;;;;5070156;28;20109;-43
2022/05/19 03:06:35;;;;;;;66.25;59.80;;;14.50;88.10;;;;;;5087441;28;20114;-43
2022/05/19 03:09:04;;;;;;;64.35;58.13;;;14.50;88.20;;;;;;5078729;28;20045;-44
2022/05/19 03:11:33;;;;;;;69.28;62.65;;;14.40;88.20;;;;;;5070658;28;20468;-45
2022/05/19 03:13:59;;;;;;;62.78;56.63;;;14.40;88.20;;;;;;5069480;28;20021;-43
2022/05/19 03:16:24;;;;;;;65.30;58.72;;;14.40;88.20;;;;;;5069908;28;20331;-45
2022/05/19 03:18:50;;;;;;;65.38;59.00;;;14.40;88.10;;;;;;5052127;28;20350;-42
2022/05/19 03:21:16;;;;;;;65.53;59.03;;;14.40;88.10;;;;;;5069146;28;20036;-43
2022/05/19 03:23:41;;;;;;;62.80;56.88;;;14.40;88.10;;;;;;5052204;28;20028;-44
2022/05/19 03:26:07;;;;;;;61.42;55.45;;;14.40;88.20;;;;;;5069740;28;20123;-45
2022/05/19 03:28:33;;;;;;;62.85;56.70;;;14.40;88.30;;;;;;5052464;28;20017;-46
2022/05/19 03:31:01;;;;;;;65.90;59.20;;;14.40;88.30;;;;;;5070042;28;20381;-44
2022/05/19 03:33:26;;;;;;;67.22;60.55;;;14.40;88.20;;;;;;5057341;28;20036;-43
2022/05/19 03:36:00;;;;;;;70.72;63.45;;;14.40;88.30;;;;;;5052413;28;20491;-43
2022/05/19 03:38:27;;;;;;;64.60;58.45;;;14.40;88.40;;;;;;5069674;28;20048;-43
2022/05/19 03:40:55;;;;;;;66.55;59.72;;;14.40;88.50;;;;;;5051078;28;20055;-43
2022/05/19 03:43:21;;;;;;;68.45;61.78;;;14.40;88.60;;;;;;5049906;28;20147;-43
2022/05/19 03:45:47;;;;;;;66.80;60.10;;;14.40;88.70;;;;;;5068862;28;20107;-42
2022/05/19 03:48:13;;;;;;;64.55;57.85;;;14.40;88.70;;;;;;5068429;28;20531;-44
2022/05/19 03:50:45;;;;;;;65.90;59.17;;;14.50;88.90;;;;;;5069581;28;20027;-45
2022/05/19 03:53:11;;;;;;;64.38;57.88;;;14.50;88.90;;;;;;5068403;28;20406;-46
2022/05/19 03:55:37;;;;;;;61.85;55.55;;;14.60;88.90;;;;;;5065522;28;20114;-44
2022/05/19 03:58:05;;;;;;;60.20;54.00;;;14.60;88.90;;;;;;5069056;28;20082;-45
2022/05/19 04:00:32;;;;;;;58.58;52.58;;;14.70;88.90;;;;;;5067936;28;20039;-45
2022/05/19 04:02:58;;;;;;;55.80;49.75;;;14.80;88.90;;;;;;5068914;28;20036;-43
2022/05/19 04:05:25;;;;;;;58.25;52.25;;;14.80;88.90;;;;;;5069220;28;20021;-44
2022/05/19 04:07:50;;;;;;;59.03;51.75;;;14.90;89.00;;;;;;5067237;28;20487;-43
2022/05/19 04:10:16;;;;;;;57.63;51.15;;;14.90;89.00;;;;;;5067503;28;20029;-43
2022/05/19 04:12:43;;;;;;;62.30;55.60;;;14.90;88.90;;;;;;5051613;28;20449;-43
2022/05/19 04:15:10;;;;;;;63.17;56.28;;;15.00;89.00;;;;;;5068877;28;20033;-42
2022/05/19 04:17:36;;;;;;;67.90;60.55;;;15.10;89.10;;;;;;5069360;28;20040;-44
2022/05/19 04:20:04;;;;;;;62.33;56.05;;;15.20;88.90;;;;;;5051669;28;20025;-43
2022/05/19 04:22:29;;;;;;;59.30;53.20;;;15.20;88.90;;;;;;5068359;28;20032;-44
2022/05/19 04:25:00;;;;;;;67.40;60.08;;;15.30;88.90;;;;;;5068364;28;20047;-43
2022/05/19 04:27:29;;;;;;;62.03;55.65;;;15.40;88.90;;;;;;5068210;28;20029;-43
2022/05/19 04:29:55;;;;;;;71.40;63.97;;;15.40;88.80;;;;;;5067153;28;20037;-43
2022/05/19 04:32:21;;;;;;;65.63;58.58;;;15.40;88.80;;;;;;5062197;28;20032;-42
2022/05/19 04:34:49;;;;;;;64.43;57.80;;;15.40;88.70;;;;;;5061038;28;20025;-43
2022/05/19 04:37:14;;;;;;;66.35;59.33;;;15.60;88.80;;;;;;5065782;28;20032;-43
2022/05/19 04:39:40;;;;;;;70.38;62.85;;;15.60;88.70;;;;;;5067565;28;20480;-43
2022/05/19 04:42:07;;;;;;;67.65;59.95;;;15.60;88.70;;;;;;5049380;28;20037;-43
2022/05/19 04:44:34;;;;;;;65.90;58.10;;;15.70;88.70;;;;;;5050516;28;20449;-46
2022/05/19 04:47:01;;;;;;;73.30;65.57;;;15.70;88.60;;;;;;5050636;28;20024;-46
2022/05/19 04:49:28;;;;;;;68.63;61.17;;;15.70;88.60;;;;;;5068309;28;20350;-45
2022/05/19 04:51:53;;;;;;;69.13;61.55;;;15.80;88.60;;;;;;5039292;28;20047;-43
2022/05/19 04:54:19;;;;;;;73.35;66.05;;;15.80;88.70;;;;;;5046194;28;20588;-43
2022/05/19 04:56:44;;;;;;;74.07;66.57;;;15.90;88.80;;;;;;5047076;28;20037;-44
2022/05/19 04:59:14;;;;;;;87.15;70.38;;;15.90;88.90;;;;;;5064560;28;20032;-44
2022/05/19 05:01:50;;;;;;;71.57;64.18;;;15.90;89.00;;;;;;5057958;28;20041;-45
2022/05/19 05:04:16;;;;;;;77.43;68.93;;;16.10;89.00;;;;;;5055636;28;20035;-43
2022/05/19 05:06:42;;;;;;;75.93;67.95;;;16.20;89.00;;;;;;5046734;28;20124;-43
2022/05/19 05:09:13;;;;;;;76.22;68.30;;;16.30;89.00;;;;;;5042907;28;20043;-44
2022/05/19 05:11:41;;;;;;;67.75;60.38;;;16.40;89.10;;;;;;5061166;28;20475;-44
2022/05/19 05:14:07;;;;;;;77.00;68.20;;;16.50;88.90;;;;;;5061838;28;20032;-44
2022/05/19 05:16:35;;;;;;;75.85;66.70;;;16.60;88.80;;;;;;5059136;28;20024;-44
2022/05/19 05:19:01;;;;;;;73.15;65.50;;;16.80;88.70;;;;;;5055743;28;20035;-44
2022/05/19 05:21:26;;;;;;;70.40;63.28;;;16.90;88.60;;;;;;5060479;28;20476;-43
2022/05/19 05:23:54;;;;;;;70.55;63.40;;;16.90;88.50;;;;;;5055949;28;20441;-43
2022/05/19 05:26:20;;;;;;;76.18;68.07;;;17.00;88.40;;;;;;5063295;28;20117;-45
2022/05/19 05:28:48;;;;;;;73.43;65.35;;;17.20;88.40;;;;;;5056679;28;21528;-44
2022/05/19 05:31:14;;;;;;;69.20;61.47;;;17.30;88.30;;;;;;5041124;28;20039;-48
2022/05/19 05:33:42;;;;;;;69.85;62.75;;;17.40;87.90;;;;;;5038676;28;20020;-45
2022/05/19 05:36:07;;;;;;;61.92;55.42;;;17.50;87.70;;;;;;5014363;28;20029;-45
2022/05/19 05:38:33;;;;;;;58.72;52.40;;;17.70;87.30;;;;;;5028779;28;20708;-48
2022/05/19 05:41:01;;;;;;;54.85;49.33;;;17.90;86.90;;;;;;5061307;28;20066;-48
2022/05/19 05:43:27;;;;;;;52.67;47.33;;;18.10;86.50;;;;;;5054648;28;20040;-45
2022/05/19 05:45:53;;;;;;;51.05;45.53;;;18.40;85.70;;;;;;5041135;28;20055;-47
2022/05/19 05:48:19;;;;;;;51.83;45.97;;;18.60;84.90;;;;;;5022103;28;20596;-45
2022/05/19 05:50:47;;;;;;;46.42;41.60;;;18.80;83.90;;;;;;5039075;28;20012;-46
2022/05/19 05:53:13;;;;;;;44.15;39.85;;;18.90;83.40;;;;;;5044905;28;20101;-47
2022/05/19 05:55:41;;;;;;;42.75;37.78;;;19.00;83.30;;;;;;5025171;28;20567;-45
2022/05/19 05:58:09;;;;;;;42.95;38.58;;;19.10;82.80;;;;;;5043262;28;20033;-48
2022/05/19 06:00:34;;;;;;;45.88;40.28;;;19.10;82.20;;;;;;5039566;28;20025;-46
2022/05/19 06:03:00;;;;;;;39.30;35.08;;;19.30;82.20;;;;;;5040612;28;20032;-46
2022/05/19 06:05:26;;;;;;;43.75;39.33;;;19.30;82.10;;;;;;5043199;28;20602;-49
2022/05/19 06:07:51;;;;;;;45.60;41.05;;;19.20;82.30;;;;;;5027872;28;20029;-46
2022/05/19 06:10:18;;;;;;;39.95;35.72;;;19.20;82.00;;;;;;5041728;28;20721;-46
2022/05/19 06:12:43;;;;;;;46.05;41.28;;;19.30;82.00;;;;;;5041924;28;20025;-46
2022/05/19 06:15:14;;;;;;;46.42;41.33;;;19.40;82.00;;;;;;5043470;28;20089;-46
2022/05/19 06:17:41;;;;;;;45.08;40.42;;;19.40;81.70;;;;;;5040698;28;20032;-50
2022/05/19 06:20:14;;;;;;;45.03;40.28;;;19.40;81.20;;;;;;5043870;28;20427;-47
2022/05/19 06:22:43;;;;;;;48.40;43.15;;;19.40;81.00;;;;;;5043937;28;20024;-45
2022/05/19 06:25:11;;;;;;;46.97;42.38;;;19.40;81.30;;;;;;5023418;28;20029;-47
2022/05/19 06:27:37;;;;;;;47.17;42.08;;;19.50;81.50;;;;;;5026525;28;20033;-47
2022/05/19 06:30:07;;;;;;;42.75;38.25;;;19.80;81.20;;;;;;5040557;28;20029;-46
2022/05/19 06:32:34;;;;;;;48.58;43.53;;;20.00;80.60;;;;;;5043425;28;20155;-47
2022/05/19 06:34:59;;;;;;;45.05;40.25;;;20.20;79.60;;;;;;5044018;28;20139;-49
2022/05/19 06:37:25;;;;;;;44.03;39.47;;;20.30;79.10;;;;;;5046264;28;21011;-49
2022/05/19 06:39:50;;;;;;;45.15;40.40;;;20.40;79.10;;;;;;5009103;28;20051;-49
2022/05/19 06:42:16;;;;;;;43.60;38.63;;;20.40;78.90;;;;;;5030678;28;20056;-46
2022/05/19 06:44:43;;;;;;;42.90;38.28;;;20.60;78.60;;;;;;5028290;28;20044;-46
2022/05/19 06:47:15;;;;;;;39.33;35.15;;;20.70;77.90;;;;;;5031664;28;20047;-46
2022/05/19 06:49:45;;;;;;;37.00;33.42;;;20.90;77.90;;;;;;5013163;28;20049;-51
2022/05/19 06:52:14;;;;;;;;;;;21.10;77.10;;;;;;5030148;28;20029;-45
2022/05/19 06:54:46;;;;;;;36.60;32.25;;;21.00;76.00;;;;;;5029178;28;20313;-49
2022/05/19 06:57:12;;;;;;;35.97;32.33;;;21.00;76.50;;;;;;5040265;28;20029;-48
2022/05/19 06:59:41;;;;;;;42.00;37.08;;;21.10;75.00;;;;;;5029189;28;20116;-48
2022/05/19 07:02:08;;;;;;;40.37;36.03;;;21.30;74.80;;;;;;5053123;28;20320;-48
2022/05/19 07:04:34;;;;;;;41.17;36.83;;;21.30;74.50;;;;;;5026317;28;20079;-48
2022/05/19 07:07:00;;;;;;;44.08;39.85;;;21.30;74.80;;;;;;5039709;28;20021;-47
2022/05/19 07:09:26;;;;;;;42.92;38.75;;;21.10;75.20;;;;;;5025463;28;20029;-48
2022/05/19 07:11:51;;;;;;;39.90;36.03;;;20.90;75.70;;;;;;5048960;28;20040;-47
2022/05/19 07:14:20;;;;;;;38.78;34.58;;;21.00;76.20;;;;;;5049053;28;20029;-48
2022/05/19 07:16:48;;;;;;;36.15;32.65;;;21.40;74.80;;;;;;5048943;28;20032;-48
2022/05/19 07:21:57;;;;;;;29.70;26.13;;;22.20;73.70;;;;;;5046063;28;20078;-51
2022/05/19 07:24:23;;;;;;;28.58;25.70;;;22.70;70.50;;;;;;5015632;28;20036;-50
2022/05/19 07:26:52;;;;;;;26.88;24.42;;;22.90;68.70;;;;;;5049552;28;20112;-46
2022/05/19 07:29:18;;;;;;;23.63;21.20;;;22.90;67.90;;;;;;5048703;28;20150;-51
2022/05/19 07:31:46;;;;;;;24.63;22.23;;;23.10;68.30;;;;;;5049432;28;20021;-47
2022/05/19 07:34:16;;;;;;;26.30;23.20;;;23.30;67.90;;;;;;5049068;28;20025;-49
2022/05/19 07:36:45;;;;;;;24.67;22.33;;;23.20;67.50;;;;;;5042795;28;20033;-49
2022/05/19 07:39:11;;;;;;;24.58;22.15;;;23.40;68.90;;;;;;5036537;28;20041;-48
2022/05/19 07:41:38;;;;;;;24.88;22.67;;;23.50;68.80;;;;;;5047573;28;20025;-50
2022/05/19 07:44:04;;;;;;;28.17;25.60;;;23.40;66.90;;;;;;5045485;28;20468;-47
2022/05/19 07:46:34;;;;;;;28.10;25.17;;;23.50;66.70;;;;;;5049126;28;20111;-48
2022/05/19 07:49:01;;;;;;;23.90;21.35;;;23.60;67.70;;;;;;5047334;28;20021;-49
2022/05/19 07:51:36;;;;;;;22.45;20.35;;;23.80;67.20;;;;;;5048496;28;20063;-47
2022/05/19 07:54:06;;;;;;;24.08;21.58;;;24.40;65.60;;;;;;5049227;28;20021;-47
2022/05/19 07:56:32;;;;;;;25.38;21.70;;;24.60;64.90;;;;;;5049535;28;20454;-48
2022/05/19 07:59:00;;;;;;;24.83;22.50;;;24.10;64.50;;;;;;5049651;28;20037;-46
2022/05/19 08:01:26;;;;;;;26.02;23.52;;;24.00;65.30;;;;;;5046716;28;20342;-47
2022/05/19 08:03:52;;;;;;;24.52;22.10;;;24.30;65.50;;;;;;5030877;28;20202;-47
2022/05/19 08:06:18;;;;;;;24.20;21.98;;;24.40;65.00;;;;;;5048221;28;20131;-48
2022/05/19 08:08:44;;;;;;;26.77;23.98;;;24.40;64.80;;;;;;5032320;28;20033;-51
2022/05/19 08:11:13;;;;;;;25.42;22.48;;;24.30;63.50;;;;;;5030292;28;20048;-47
2022/05/19 08:16:22;;;;;;;26.80;24.50;;;24.90;63.80;;;;;;5036277;28;20335;-49
2022/05/19 08:18:48;;;;;;;26.08;23.55;;;24.90;63.40;;;;;;5049373;28;20032;-49
2022/05/19 08:21:14;;;;;;;26.52;24.02;;;24.80;63.10;;;;;;5048536;28;20032;-49
2022/05/19 08:23:47;;;;;;;27.08;24.60;;;24.90;62.90;;;;;;5044593;28;20148;-48
2022/05/19 08:26:13;;;;;;;26.75;24.25;;;24.70;62.90;;;;;;5048614;28;20029;-50
2022/05/19 08:28:41;;;;;;;27.00;24.60;;;24.20;64.70;;;;;;5048061;28;20056;-46
2022/05/19 08:31:20;;;;;;;28.85;26.05;;;23.90;66.50;;;;;;5031900;28;20029;-46
2022/05/19 08:33:47;;;;;;;35.58;31.98;;;23.50;67.00;;;;;;5048480;28;20033;-48
2022/05/19 08:36:14;;;;;;;40.38;36.22;;;23.20;68.90;;;;;;5049053;28;20307;-48
2022/05/19 08:38:40;;;;;;;39.10;35.25;;;22.70;71.00;;;;;;5059347;28;20064;-48
2022/05/19 08:41:14;;;;;;;42.15;37.42;;;22.20;72.00;;;;;;5066972;28;20064;-52
2022/05/19 08:43:44;;;;;;;42.60;38.50;;;21.80;74.10;;;;;;5067646;28;20035;-49
2022/05/19 08:46:27;;;;;;;41.78;37.55;;;21.60;73.40;;;;;;5066809;28;20025;-47
2022/05/19 08:48:55;;;;;;;37.53;33.92;;;21.40;75.40;;;;;;5066975;28;20039;-48
2022/05/19 08:51:26;;;;;;;35.45;32.15;;;21.40;74.00;;;;;;5066964;28;20020;-48
2022/05/19 08:53:54;;;;;;;35.28;31.90;;;21.50;73.00;;;;;;5063175;28;20123;-47
2022/05/19 08:56:31;;;;;;;34.05;30.65;;;21.90;72.00;;;;;;5056320;28;20493;-46
2022/05/19 08:59:10;;;;;;;34.28;30.75;;;22.20;70.40;;;;;;5068081;28;20044;-48
2022/05/19 09:01:54;;;;;;;;;;;22.30;69.40;;;;;;5068295;28;20476;-47
2022/05/19 09:04:35;;;;;;;36.60;33.00;;;22.30;68.60;;;;;;5048125;28;19915;-46
2022/05/19 09:10:44;;;;;;;37.40;33.60;;;22.50;68.40;;;;;;5039323;28;20031;-48
2022/05/19 09:13:23;;;;;;;36.58;32.75;;;22.20;70.10;;;;;;5050213;28;20025;-47
2022/05/19 09:15:52;;;;;;;37.63;33.63;;;21.70;69.90;;;;;;5067521;28;20048;-48
2022/05/19 09:18:20;;;;;;;35.45;31.88;;;21.40;72.00;;;;;;5068178;28;20034;-46
2022/05/19 09:20:53;;;;;;;39.40;35.28;;;21.30;72.70;;;;;;5068325;28;20044;-47
2022/05/19 09:23:19;;;;;;;38.63;34.78;;;21.40;71.40;;;;;;5049523;28;20545;-46
2022/05/19 09:25:51;;;;;;;34.92;31.40;;;21.40;72.20;;;;;;5067769;28;20531;-46
2022/05/19 09:28:20;;;;;;;30.23;27.10;;;21.60;72.10;;;;;;5062460;28;20503;-48
2022/05/19 09:30:53;;;;;;;28.58;24.48;;;22.10;70.00;;;;;;5068831;28;20056;-50
2022/05/19 09:33:24;;;;;;;28.25;25.25;;;22.50;67.00;;;;;;5050198;28;20434;-49
2022/05/19 09:35:54;;;;;;;29.85;25.35;;;22.80;67.00;;;;;;5068642;28;20047;-46
2022/05/19 09:38:22;;;;;;;;;;;23.00;66.20;;;;;;5066234;28;20045;-50
2022/05/19 09:40:48;;;;;;;20.65;18.42;;;22.90;64.60;;;;;;5043661;28;19942;-46
2022/05/19 09:43:19;;;;;;;18.83;16.52;;;22.40;64.40;;;;;;5065469;28;20033;-48
2022/05/19 09:45:49;;;;;;;22.55;17.80;;;21.90;66.80;;;;;;5066884;28;20028;-47
2022/05/19 09:48:25;;;;;;;23.33;18.42;;;21.60;67.60;;;;;;5049476;28;20033;-46
2022/05/19 09:51:09;;;;;;;26.15;22.63;;;21.30;69.20;;;;;;5067396;28;20025;-46
2022/05/19 09:53:57;;;;;;;24.77;22.08;;;21.00;70.30;;;;;;5057179;28;20420;-46
2022/05/19 09:56:34;;;;;;;25.77;23.10;;;20.60;72.10;;;;;;5050224;28;20052;-46
2022/05/19 09:59:14;;;;;;;23.83;21.33;;;20.20;72.80;;;;;;5063836;28;20372;-46
2022/05/19 10:01:45;;;;;;;29.63;26.58;;;19.90;74.70;;;;;;5066581;28;20044;-47
2022/05/19 10:04:25;;;;;;;23.17;18.17;;;19.70;76.60;;;;;;5052757;28;20381;-44
2022/05/19 10:06:56;;;;;;;23.92;21.00;;;19.20;77.10;;;;;;5069366;28;20132;-44
2022/05/19 10:09:34;;;;;;;30.55;22.90;;;18.90;77.80;;;;;;5047100;28;20330;-44
2022/05/19 10:12:09;;;;;;;28.27;22.13;;;18.50;78.50;;;;;;5061263;28;20372;-44
2022/05/19 10:14:35;;;;;;;32.13;24.70;;;18.30;79.70;;;;;;5068415;28;20024;-45
2022/05/19 10:17:30;;;;;;;27.00;23.85;;;18.40;80.70;;;;;;5061902;28;20524;-45
2022/05/19 10:20:13;;;;;;;34.63;25.20;;;18.10;80.50;;;;;;5063255;28;20087;-45
2022/05/19 10:22:50;;;;;;;31.05;23.40;;;18.20;80.80;;;;;;5040762;28;20036;-44
2022/05/19 10:25:48;;;;;;;33.20;25.02;;;18.30;80.40;;;;;;5066906;28;20028;-44
2022/05/19 10:31:48;;;;;;;27.92;20.85;;;18.40;80.70;;;;;;5055703;28;20517;-44
2022/05/19 10:34:32;;;;;;;28.20;21.45;;;18.50;81.00;;;;;;5061763;28;20033;-43
2022/05/19 10:37:27;;;;;;;24.65;19.08;;;18.70;80.80;;;;;;5067281;28;20047;-44
2022/05/19 10:40:18;;;;;;;23.55;19.67;;;18.80;80.70;;;;;;5037882;28;20495;-45
2022/05/19 10:42:44;;;;;;;28.42;19.88;;;18.70;79.90;;;;;;5049933;28;20033;-45
2022/05/19 10:45:17;;;;;;;33.25;25.23;;;18.70;80.60;;;;;;5050318;28;20089;-44
2022/05/19 10:48:17;;;;;;;26.60;22.42;;;18.80;80.30;;;;;;5048630;28;20369;-43
2022/05/19 10:50:52;;;;;;;28.27;23.25;;;18.70;80.40;;;;;;5043762;28;20082;-43
2022/05/19 10:53:21;;;;;;;23.15;20.15;;;18.80;80.00;;;;;;5049511;28;20021;-46
2022/05/19 10:55:57;;;;;;;23.02;20.20;;;18.90;79.30;;;;;;5050627;28;20063;-47
2022/05/19 10:59:00;;;;;;;22.35;17.30;;;19.20;79.10;;;;;;5047227;28;20056;-44
2022/05/19 11:01:48;;;;;;;21.45;15.80;;;19.40;77.20;;;;;;5047367;28;20025;-47
2022/05/19 11:04:44;;;;;;;21.58;16.30;;;19.70;77.10;;;;;;5031433;28;20113;-45
2022/05/19 11:07:33;;;;;;;20.10;15.50;;;20.10;76.10;;;;;;5049655;28;20434;-45
2022/05/19 11:10:33;;;;;;;22.25;15.90;;;20.40;75.50;;;;;;5048793;28;20033;-47
2022/05/19 11:13:13;;;;;;;25.48;19.08;;;20.50;74.50;;;;;;5049463;28;20046;-45
2022/05/19 11:15:57;;;;;;;20.17;15.27;;;20.40;73.60;;;;;;5050353;28;20426;-47
2022/05/19 11:18:36;;;;;;;22.58;16.13;;;20.40;74.40;;;;;;5049193;28;20572;-48
2022/05/19 11:21:22;;;;;;;22.95;18.95;;;20.40;74.40;;;;;;5048910;28;20025;-47
2022/05/19 11:23:56;;;;;;;18.10;15.43;;;20.50;75.00;;;;;;5049102;28;20450;-45
2022/05/19 11:26:27;;;;;;;26.88;16.95;;;20.40;74.40;;;;;;5049188;28;20044;-45
2022/05/19 11:28:53;;;;;;;21.60;18.17;;;20.90;74.20;;;;;;5049285;28;20102;-49
2022/05/19 11:31:54;;;;;;;18.58;15.90;;;20.90;74.00;;;;;;5050083;28;20067;-46
2022/05/19 11:34:53;;;;;;;24.90;19.42;;;21.10;74.70;;;;;;5041897;28;20022;-48
2022/05/19 11:37:42;;;;;;;25.00;20.55;;;21.40;71.90;;;;;;5047719;28;20078;-48
2022/05/19 11:40:35;;;;;;;23.03;18.13;;;21.50;71.20;;;;;;5067645;28;20086;-45
2022/05/19 11:43:16;;;;;;;20.67;18.48;;;21.70;72.30;;;;;;5069423;28;20063;-46
2022/05/19 11:45:58;;;;;;;24.05;18.73;;;21.70;72.30;;;;;;5059885;28;20913;-46
2022/05/19 11:57:29;;;;;;;20.08;17.83;;;22.00;70.70;;;;;;5070017;28;20460;-46
2022/05/19 11:59:57;;;;;;;21.65;17.33;;;22.20;72.60;;;;;;5061509;28;20509;-46
2022/05/19 12:02:40;;;;;;;22.50;16.98;;;22.40;71.50;;;;;;5070449;28;20059;-46
2022/05/19 12:05:21;;;;;;;25.70;21.17;;;22.70;70.30;;;;;;5041187;28;20454;-48
2022/05/19 12:07:53;;;;;;;24.17;20.75;;;22.90;70.10;;;;;;5067027;28;20067;-47
2022/05/19 12:10:31;;;;;;;24.73;18.70;;;22.90;69.00;;;;;;5067188;28;20025;-48
2022/05/19 12:13:00;;;;;;;17.13;15.07;;;22.90;68.80;;;;;;5069689;28;20060;-48
2022/05/19 12:15:36;;;;;;;21.23;18.58;;;23.20;71.00;;;;;;5051468;28;20468;-47
2022/05/19 12:18:31;;;;;;;18.70;16.42;;;23.40;69.00;;;;;;5059291;28;20040;-48
2022/05/19 12:20:59;;;;;;;23.65;19.38;;;23.80;68.30;;;;;;5065870;28;20764;-46
2022/05/19 12:23:32;;;;;;;22.15;18.95;;;23.80;67.20;;;;;;5066916;28;20028;-48
2022/05/19 12:26:05;;;;;;;22.77;18.52;;;24.10;69.30;;;;;;5050405;28;20044;-46
2022/05/19 12:29:11;;;;;;;20.27;18.02;;;24.50;69.40;;;;;;5066769;28;20029;-48
2022/05/19 12:31:59;;;;;;;23.65;19.90;;;25.00;66.20;;;;;;5065619;28;20461;-47
2022/05/19 12:34:36;;;;;;;21.80;19.40;;;25.10;65.30;;;;;;5066943;28;20016;-48
2022/05/19 12:37:26;;;;;;;21.17;17.05;;;25.10;66.20;;;;;;5050981;28;20594;-47
2022/05/19 12:39:52;;;;;;;17.70;16.00;;;25.30;65.20;;;;;;5047519;28;20037;-46
2022/05/19 12:42:32;;;;;;;19.23;16.95;;;25.20;64.90;;;;;;5025319;28;20041;-47
2022/05/19 12:44:59;;;;;;;18.25;15.35;;;25.10;63.90;;;;;;5036119;28;20033;-48
2022/05/19 12:47:32;;;;;;;16.73;15.00;;;25.00;65.00;;;;;;5031524;28;20021;-49
2022/05/19 12:50:01;;;;;;;21.38;17.98;;;25.30;65.10;;;;;;5017581;28;20045;-46
2022/05/19 12:53:08;;;;;;;18.58;15.90;;;25.60;63.90;;;;;;5064428;28;20476;-45
2022/05/19 12:55:38;;;;;;;19.48;17.52;;;25.50;62.80;;;;;;5057795;28;20028;-46
2022/05/19 12:58:37;;;;;;;19.35;14.18;;;25.40;63.40;;;;;;5059529;28;20029;-45
2022/05/19 13:01:26;;;;;;;16.77;15.07;;;25.40;62.70;;;;;;5043003;28;20116;-45
2022/05/19 13:04:04;;;;;;;17.23;12.77;;;25.40;61.80;;;;;;5046721;28;20033;-49
2022/05/19 13:06:32;;;;;;;15.10;12.80;;;25.30;62.20;;;;;;5045759;28;20079;-49
2022/05/19 13:09:02;;;;;;;14.55;13.02;;;25.30;64.60;;;;;;5060247;28;20465;-49
2022/05/19 13:11:44;;;;;;;16.58;13.73;;;25.30;64.10;;;;;;5044752;28;20087;-48
2022/05/19 13:14:18;;;;;;;16.48;14.65;;;25.30;64.10;;;;;;5059856;28;20110;-49